NCAR-RAP Real-Time Weather Data

Output produced by METARs form (06 May 2021  17:11 UTC)
found at http://weather.rap.ucar.edu/surface/
 
KEEO 061653Z AUTO 00000KT 10SM CLR 17/M04 A3031 RMK AO2 SLP208 T01721044
KEEO 061553Z AUTO VRB03KT 10SM CLR 13/M03 A3033 RMK AO2 SLP222 T01331033
KEEO 061453Z AUTO 00000KT 10SM CLR 09/M04 A3035 RMK AO2 SLP240 T00891039 50000
KEEO 061353Z AUTO 00000KT 10SM CLR 06/M03 A3036 RMK AO2 SLP236 T00561033
KEEO 061253Z AUTO 06003KT 10SM CLR 01/M03 A3036 RMK AO2 SLP246 T00111033
KEEO 061153Z AUTO 06003KT 10SM CLR M01/M04 A3035 RMK AO2 SLP245 T10111044 10056 21011 53003
KEEO 061053Z AUTO 03005KT 10SM CLR 00/M04 A3034 RMK AO2 SLP240 T00001039
KEEO 060953Z AUTO 05005KT 10SM CLR 00/M04 A3034 RMK AO2 SLP237 T00001039
KEEO 060853Z AUTO 08006KT 10SM CLR 03/M04 A3034 RMK AO2 SLP232 T00281039 50002
KEEO 060753Z AUTO 07005KT 10SM CLR 04/M04 A3035 RMK AO2 SLP238 T00391039
KEEO 060653Z AUTO 09005KT 10SM CLR 04/M03 A3034 RMK AO2 SLP238 T00391033 401720006
KEEO 060553Z AUTO 03008KT 10SM CLR 04/M03 A3033 RMK AO2 SLP235 T00441028 10167 20039 51015
KEEO 060453Z AUTO 10010KT 10SM CLR 08/M03 A3032 RMK AO2 SLP226 T00781033
KEEO 060353Z AUTO 00000KT 10SM CLR 08/M03 A3031 RMK AO2 SLP226 T00831028